Time;durP1;ratioP1;P1;durP2;ratioP2;P2;SDS_P1;SDS_P2;PMS_P1;PMS_P2;Temp;Humidity;BMP_temperature;BMP_pressure;BME280_temperature;BME280_humidity;BME280_pressure;Samples;Min_cycle;Max_cycle;Signal;HPM_P1;HPM_P2
2022/08/11 00:01:11;;;;;;;4.28;3.17;;;;;18.90;96933.00;;;;8359715;28;20251;-72
2022/08/11 00:05:18;;;;;;;6.63;3.00;;;;;18.70;96935.00;;;;8367681;28;20228;-72
2022/08/11 00:09:30;;;;;;;3.28;3.00;;;;;18.70;96932.00;;;;8375750;28;20222;-73
2022/08/11 00:13:44;;;;;;;3.85;2.90;;;;;18.60;96935.00;;;;8372429;28;20235;-73
2022/08/11 00:17:48;;;;;;;4.80;3.30;;;;;18.70;96925.00;;;;8367858;28;20238;-72
2022/08/11 00:21:54;;;;;;;4.68;3.03;;;;;18.80;96925.00;;;;8370555;28;20223;-73
2022/08/11 00:26:08;;;;;;;10.40;2.95;;;;;18.90;96924.00;;;;8375665;28;20228;-73
2022/08/11 00:30:12;;;;;;;4.20;3.30;;;;;19.10;96936.00;;;;8373223;28;20821;-72
2022/08/11 00:34:17;;;;;;;4.75;3.08;;;;;19.20;96933.00;;;;8377898;28;20254;-72
2022/08/11 00:38:26;;;;;;;7.95;3.10;;;;;19.30;96935.00;;;;8368213;28;20230;-73
2022/08/11 00:42:46;;;;;;;3.13;2.90;;;;;19.30;96945.00;;;;8380229;28;20223;-71
2022/08/11 00:47:02;;;;;;;2.88;2.67;;;;;19.40;96947.00;;;;8378361;28;20228;-73
2022/08/11 00:51:13;;;;;;;3.17;2.90;;;;;19.40;96949.00;;;;8386155;28;20246;-72
2022/08/11 00:56:08;;;;;;;6.57;2.85;;;;;19.50;96945.00;;;;8385256;28;20227;-73
2022/08/11 01:00:14;;;;;;;9.18;2.95;;;;;19.50;96939.00;;;;8385976;28;20220;-72
2022/08/11 01:04:36;;;;;;;4.35;2.90;;;;;19.50;96940.00;;;;8403611;28;20264;-73
2022/08/11 01:09:14;;;;;;;11.68;3.10;;;;;19.50;96937.00;;;;8407367;28;20322;-73
2022/08/11 01:13:55;;;;;;;4.20;3.17;;;;;19.40;96939.00;;;;8415258;28;21230;-72
2022/08/11 01:18:40;;;;;;;3.53;3.22;;;;;19.40;96941.00;;;;8409486;28;20226;-72
2022/08/11 01:23:21;;;;;;;7.45;2.80;;;;;19.30;96931.00;;;;8364931;28;20215;-73
2022/08/11 01:28:10;;;;;;;5.22;3.40;;;;;19.20;96938.00;;;;8411328;28;20667;-72
2022/08/11 01:32:49;;;;;;;3.33;2.65;;;;;19.20;96936.00;;;;8409696;28;20219;-72
2022/08/11 01:37:13;;;;;;;4.47;2.97;;;;;19.10;96935.00;;;;8383897;28;20245;-73
2022/08/11 01:45:55;;;;;;;3.45;3.15;;;;;19.00;96924.00;;;;8371226;28;20228;-72
2022/08/11 01:50:09;;;;;;;4.35;3.30;;;;;18.80;96919.00;;;;8343386;28;20612;-71
2022/08/11 01:54:24;;;;;;;4.03;3.20;;;;;18.70;96917.00;;;;8372309;28;20259;-73
2022/08/11 01:58:35;;;;;;;4.75;2.65;;;;;18.60;96924.00;;;;8407906;28;20230;-73
2022/08/11 02:02:53;;;;;;;4.70;3.03;;;;;18.50;96918.00;;;;8412212;28;20806;-73
2022/08/11 02:07:04;;;;;;;4.20;2.83;;;;;18.60;96916.00;;;;8372394;28;20234;-74
2022/08/11 02:11:30;;;;;;;7.60;3.35;;;;;18.60;96915.00;;;;8368433;28;20253;-72
2022/08/11 02:15:42;;;;;;;3.42;3.00;;;;;18.60;96921.00;;;;8373623;28;21659;-72
2022/08/11 02:24:23;;;;;;;4.70;2.85;;;;;18.60;96915.00;;;;8387440;28;20713;-72
2022/08/11 02:28:37;;;;;;;6.18;3.13;;;;;18.50;96903.00;;;;8376195;28;20334;-72
2022/08/11 02:37:34;;;;;;;3.67;3.05;;;;;18.30;96902.00;;;;8389259;28;20288;-72
2022/08/11 02:46:49;;;;;;;3.05;2.78;;;;;18.10;96899.00;;;;8269402;28;20239;-73
2022/08/11 02:51:04;;;;;;;3.80;2.97;;;;;18.00;96898.00;;;;8308546;28;20299;-70
2022/08/11 02:55:19;;;;;;;6.40;3.10;;;;;17.90;96897.00;;;;8386156;28;20732;-75
2022/08/11 02:59:51;;;;;;;5.75;3.20;;;;;17.80;96896.00;;;;8410709;28;20626;-74
2022/08/11 03:04:16;;;;;;;5.15;2.90;;;;;17.80;96893.00;;;;8419018;22;20239;-75
2022/08/11 03:08:33;;;;;;;3.60;2.90;;;;;17.70;96893.00;;;;8373681;28;20746;-75
2022/08/11 03:17:25;;;;;;;6.65;3.00;;;;;17.70;96898.00;;;;8437072;28;20758;-75
2022/08/11 03:21:36;;;;;;;3.85;3.10;;;;;17.80;96888.00;;;;8445657;28;20794;-74
2022/08/11 03:26:05;;;;;;;4.63;3.30;;;;;17.70;96891.00;;;;8436763;28;20280;-75
2022/08/11 03:30:16;;;;;;;5.15;3.10;;;;;17.70;96898.00;;;;8442300;28;20780;-76
2022/08/11 03:34:25;;;;;;;7.18;3.45;;;;;17.60;96893.00;;;;8437018;28;20229;-77
2022/08/11 03:38:48;;;;;;;6.13;3.20;;;;;17.50;96900.00;;;;8445726;28;20220;-77
2022/08/11 03:43:03;;;;;;;3.85;3.28;;;;;17.40;96895.00;;;;8442295;28;20225;-73
2022/08/11 03:47:32;;;;;;;4.88;3.13;;;;;17.30;96898.00;;;;8435868;28;20230;-79
2022/08/11 03:51:48;;;;;;;6.85;3.65;;;;;17.30;96902.00;;;;8397874;28;20694;-78
2022/08/11 03:56:43;;;;;;;6.28;3.72;;;;;17.20;96902.00;;;;8433619;27;20228;-80
2022/08/11 04:01:31;;;;;;;3.55;3.22;;;;;17.10;96897.00;;;;8406933;28;20230;-78
2022/08/11 04:06:14;;;;;;;5.13;3.58;;;;;17.00;96899.00;;;;8442546;28;20231;-80
2022/08/11 04:11:07;;;;;;;5.80;3.53;;;;;17.00;96901.00;;;;8443216;28;20236;-76
2022/08/11 04:20:29;;;;;;;8.00;3.42;;;;;16.90;96902.00;;;;8450052;27;20245;-78
2022/08/11 04:25:07;;;;;;;5.65;3.25;;;;;16.90;96902.00;;;;8443020;27;20227;-74
2022/08/11 04:29:25;;;;;;;3.75;2.92;;;;;17.00;96897.00;;;;8445305;27;20754;-73
2022/08/11 04:34:32;;;;;;;3.45;3.15;;;;;17.00;96895.00;;;;8447519;27;20228;-73
2022/08/11 04:38:58;;;;;;;5.57;3.13;;;;;17.10;96900.00;;;;8365180;28;20553;-63
2022/08/11 04:43:31;;;;;;;10.52;3.60;;;;;17.10;96901.00;;;;8443789;27;20221;-63
2022/08/11 05:02:07;;;;;;;5.00;3.38;;;;;17.50;96916.00;;;;8448374;27;20226;-63
2022/08/11 05:06:55;;;;;;;3.70;3.40;;;;;17.70;96922.00;;;;8430995;28;20236;-63
2022/08/11 05:11:17;;;;;;;4.03;3.70;;;;;17.80;96924.00;;;;8446999;28;20338;-64
2022/08/11 06:00:09;;;;;;;6.60;3.60;;;;;19.30;96918.00;;;;8432280;28;20353;-63
2022/08/11 06:04:18;;;;;;;7.63;3.53;;;;;19.30;96927.00;;;;8430962;28;20253;-64
2022/08/11 06:08:31;;;;;;;4.05;3.17;;;;;19.40;96928.00;;;;8435990;28;20317;-63
2022/08/11 06:12:36;;;;;;;3.95;3.17;;;;;19.50;96932.00;;;;8406760;28;20232;-64
2022/08/11 06:16:42;;;;;;;4.22;3.63;;;;;19.60;96931.00;;;;8412896;28;20235;-64
2022/08/11 06:20:49;;;;;;;3.40;3.10;;;;;19.60;96931.00;;;;8412559;28;20306;-64
2022/08/11 06:25:01;;;;;;;5.28;3.03;;;;;19.80;96934.00;;;;8420111;28;20231;-64
2022/08/11 06:29:05;;;;;;;7.43;3.40;;;;;20.00;96933.00;;;;8402673;28;20655;-64
2022/08/11 06:33:11;;;;;;;4.00;3.55;;;;;20.10;96939.00;;;;8413162;28;20321;-64
2022/08/11 06:37:22;;;;;;;4.10;3.38;;;;;20.20;96940.00;;;;8414233;28;20229;-64
2022/08/11 06:41:33;;;;;;;3.60;3.30;;;;;20.40;96931.00;;;;8407440;28;20220;-64
2022/08/11 06:45:42;;;;;;;5.57;3.30;;;;;20.70;96933.00;;;;8411999;28;20215;-64
2022/08/11 06:54:13;;;;;;;4.47;3.40;;;;;21.20;96937.00;;;;8377247;28;20219;-64
2022/08/11 07:02:47;;;;;;;8.48;3.40;;;;;21.80;96930.00;;;;8409397;28;20342;-64
2022/08/11 07:16:29;;;;;;;12.32;3.20;;;;;22.50;96923.00;;;;8408083;28;20219;-64
2022/08/11 07:29:19;;;;;;;3.97;2.92;;;;;24.10;96923.00;;;;8415257;28;20310;-64
2022/08/11 07:33:31;;;;;;;4.40;2.97;;;;;24.50;96931.00;;;;8409970;28;20222;-64
2022/08/11 07:37:58;;;;;;;20.77;3.83;;;;;25.00;96920.00;;;;8412023;28;20272;-64
2022/08/11 07:42:07;;;;;;;3.40;3.08;;;;;25.40;96923.00;;;;8399591;28;20223;-64
2022/08/11 07:55:02;;;;;;;4.40;2.83;;;;;26.60;96933.00;;;;8409958;28;20306;-64
2022/08/11 08:21:14;;;;;;;4.63;2.80;;;;;27.20;96937.00;;;;8411423;28;20265;-64
2022/08/11 08:25:19;;;;;;;3.28;2.45;;;;;27.50;96937.00;;;;8421591;28;20297;-64
2022/08/11 08:33:43;;;;;;;4.63;2.42;;;;;28.20;96925.00;;;;8422862;28;20230;-64
2022/08/11 08:37:49;;;;;;;5.32;2.58;;;;;28.00;96948.00;;;;8419972;28;20763;-65
2022/08/11 08:41:56;;;;;;;3.05;2.75;;;;;27.90;96941.00;;;;8410773;28;21155;-64
2022/08/11 08:45:59;;;;;;;3.03;2.72;;;;;28.40;96952.00;;;;8428173;28;20305;-64
2022/08/11 08:50:06;;;;;;;3.50;2.72;;;;;28.90;96933.00;;;;8425421;28;20235;-64
2022/08/11 08:54:12;;;;;;;3.00;2.63;;;;;28.90;96925.00;;;;8406101;28;20216;-64
2022/08/11 08:58:20;;;;;;;4.05;2.70;;;;;28.50;96937.00;;;;8427649;28;20223;-65
2022/08/11 09:02:26;;;;;;;3.03;2.78;;;;;28.50;96933.00;;;;8418594;28;20622;-65
2022/08/11 09:06:39;;;;;;;2.90;2.60;;;;;28.70;96935.00;;;;8445886;28;20319;-65
2022/08/11 09:10:43;;;;;;;4.43;2.15;;;;;29.00;96932.00;;;;8443642;28;20660;-65
2022/08/11 09:15:02;;;;;;;5.18;2.60;;;;;29.10;96920.00;;;;8433502;28;20228;-65
2022/08/11 09:19:06;;;;;;;2.17;1.98;;;;;29.00;96925.00;;;;8443076;28;20268;-64
2022/08/11 09:28:06;;;;;;;3.90;2.08;;;;;28.90;96923.00;;;;8307187;28;20250;-65
2022/08/11 09:32:13;;;;;;;3.38;2.40;;;;;28.70;96924.00;;;;8381853;27;20222;-65
2022/08/11 09:40:40;;;;;;;2.67;2.17;;;;;29.20;96913.00;;;;8445094;28;20233;-64
2022/08/11 09:44:51;;;;;;;6.60;2.60;;;;;29.60;96923.00;;;;8433000;28;20318;-65
2022/08/11 09:48:59;;;;;;;3.10;2.28;;;;;29.60;96910.00;;;;8442192;28;20234;-65
2022/08/11 09:53:05;;;;;;;3.22;2.47;;;;;29.40;96896.00;;;;8445600;28;20232;-64
2022/08/11 10:01:58;;;;;;;5.70;2.17;;;;;29.60;96901.00;;;;8440833;28;20301;-65
2022/08/11 10:10:38;;;;;;;2.25;2.15;;;;;30.00;96892.00;;;;8419883;28;20235;-65
2022/08/11 10:19:06;;;;;;;5.68;2.67;;;;;30.10;96883.00;;;;8429059;28;20306;-65
2022/08/11 10:27:34;;;;;;;4.90;2.38;;;;;31.30;96878.00;;;;8417919;28;20222;-65
2022/08/11 10:36:20;;;;;;;2.20;1.95;;;;;31.30;96887.00;;;;8414805;28;20231;-65
2022/08/11 10:40:25;;;;;;;6.40;2.30;;;;;31.40;96870.00;;;;8399528;28;20222;-65
2022/08/11 10:44:36;;;;;;;2.17;2.00;;;;;32.30;96870.00;;;;8417601;28;20828;-65
2022/08/11 10:48:40;;;;;;;3.05;2.10;;;;;32.70;96856.00;;;;8421995;28;20718;-65
2022/08/11 11:01:32;;;;;;;2.85;2.10;;;;;34.10;96854.00;;;;8409075;28;20647;-65
2022/08/11 11:05:40;;;;;;;2.95;1.92;;;;;34.50;96844.00;;;;8410171;28;20239;-66
2022/08/11 11:10:06;;;;;;;2.17;1.98;;;;;34.30;96843.00;;;;8410904;28;20243;-66
2022/08/11 11:18:37;;;;;;;3.35;1.92;;;;;33.60;96844.00;;;;8408869;28;20218;-66
2022/08/11 11:22:47;;;;;;;4.70;1.92;;;;;33.40;96838.00;;;;8401751;28;20246;-66
2022/08/11 11:26:55;;;;;;;2.47;2.00;;;;;32.80;96848.00;;;;8407780;28;20223;-65
2022/08/11 11:31:13;;;;;;;3.88;1.75;;;;;33.10;96831.00;;;;8406565;28;20259;-66
2022/08/11 11:35:26;;;;;;;2.78;1.90;;;;;33.40;96843.00;;;;8405316;28;20235;-65
2022/08/11 11:39:32;;;;;;;18.17;2.60;;;;;32.90;96831.00;;;;8409999;28;20238;-66
2022/08/11 11:43:36;;;;;;;1.90;1.60;;;;;32.90;96827.00;;;;8408542;28;20342;-66
2022/08/11 11:47:43;;;;;;;1.70;1.65;;;;;33.00;96827.00;;;;8411415;28;20227;-66
2022/08/11 11:51:47;;;;;;;3.50;2.00;;;;;33.60;96823.00;;;;8410185;28;20226;-66
2022/08/11 11:55:53;;;;;;;2.15;1.80;;;;;34.20;96806.00;;;;8414803;28;20256;-66
2022/08/11 12:04:20;;;;;;;3.03;1.52;;;;;32.80;96822.00;;;;8408628;28;20315;-66
2022/08/11 12:08:25;;;;;;;1.90;1.80;;;;;32.70;96819.00;;;;8407751;28;20237;-66
2022/08/11 12:16:52;;;;;;;4.20;1.60;;;;;31.60;96805.00;;;;8401326;28;20222;-66
2022/08/11 12:20:57;;;;;;;2.08;1.83;;;;;31.10;96802.00;;;;8412451;28;20257;-66
2022/08/11 12:29:26;;;;;;;5.43;1.90;;;;;30.30;96796.00;;;;8417103;28;20323;-65
2022/08/11 12:33:30;;;;;;;1.55;1.48;;;;;30.50;96799.00;;;;8413386;28;20585;-65
2022/08/11 12:37:42;;;;;;;1.85;1.70;;;;;30.60;96800.00;;;;8416349;28;20215;-66
2022/08/11 12:46:09;;;;;;;1.67;1.58;;;;;30.50;96792.00;;;;8413502;28;20755;-65
2022/08/11 12:54:44;;;;;;;2.95;1.60;;;;;30.30;96772.00;;;;8419605;28;20312;-66
2022/08/11 12:58:50;;;;;;;1.80;1.70;;;;;30.60;96784.00;;;;8412655;28;20312;-66
2022/08/11 13:07:17;;;;;;;4.53;1.63;;;;;30.20;96777.00;;;;8408609;28;20223;-66
2022/08/11 13:16:00;;;;;;;1.67;1.58;;;;;30.20;96752.00;;;;8424405;28;20223;-65
2022/08/11 13:20:05;;;;;;;3.13;1.75;;;;;30.10;96753.00;;;;8416740;28;20232;-66
2022/08/11 13:24:08;;;;;;;2.92;1.52;;;;;30.30;96755.00;;;;8420132;28;20226;-65
2022/08/11 13:28:13;;;;;;;1.42;1.40;;;;;30.50;96754.00;;;;8417134;28;20233;-65
2022/08/11 13:32:16;;;;;;;1.73;1.63;;;;;30.60;96746.00;;;;8421628;28;20226;-65
2022/08/11 13:36:24;;;;;;;1.88;1.67;;;;;30.80;96762.00;;;;8422562;28;20218;-65
2022/08/11 13:40:28;;;;;;;1.50;1.40;;;;;31.10;96733.00;;;;8398026;28;20224;-65
2022/08/11 13:44:53;;;;;;;1.70;1.60;;;;;31.80;96740.00;;;;8417557;28;20646;-66
2022/08/11 13:48:57;;;;;;;2.95;1.60;;;;;32.80;96747.00;;;;8403257;28;20227;-65
2022/08/11 13:53:03;;;;;;;1.80;1.70;;;;;33.00;96747.00;;;;8415689;28;20223;-65
2022/08/11 13:57:08;;;;;;;1.70;1.60;;;;;33.40;96735.00;;;;8417683;28;20646;-65
2022/08/11 14:01:38;;;;;;;2.05;1.50;;;;;33.60;96729.00;;;;8415427;28;20622;-65
2022/08/11 14:06:03;;;;;;;1.73;1.52;;;;;33.50;96720.00;;;;8408707;28;20688;-65
2022/08/11 14:10:10;;;;;;;3.75;1.52;;;;;33.80;96731.00;;;;8406750;28;20245;-65
2022/08/11 14:14:21;;;;;;;1.70;1.60;;;;;33.90;96718.00;;;;8411886;28;20258;-66
2022/08/11 14:18:28;;;;;;;1.60;1.48;;;;;34.00;96714.00;;;;8409166;28;20720;-65
2022/08/11 14:22:32;;;;;;;3.40;1.63;;;;;34.50;96717.00;;;;8408604;28;20246;-65
2022/08/11 14:26:37;;;;;;;1.83;1.63;;;;;34.70;96718.00;;;;8413772;28;20223;-64
2022/08/11 14:30:56;;;;;;;2.08;1.48;;;;;35.00;96721.00;;;;8411118;28;20243;-65
2022/08/11 14:35:06;;;;;;;2.45;2.00;;;;;34.90;96715.00;;;;8393355;28;20219;-64
2022/08/11 14:39:11;;;;;;;2.10;1.90;;;;;34.40;96712.00;;;;8399534;28;20219;-65
2022/08/11 14:48:01;;;;;;;1.60;1.50;;;;;34.40;96713.00;;;;8402047;28;20286;-63
2022/08/11 14:52:09;;;;;;;1.67;1.65;;;;;34.60;96720.00;;;;8408851;28;20766;-65
2022/08/11 15:00:34;;;;;;;3.05;1.60;;;;;34.30;96705.00;;;;8409457;28;20227;-64
2022/08/11 15:04:39;;;;;;;1.85;1.70;;;;;34.40;96708.00;;;;8411788;28;20215;-63
2022/08/11 15:08:56;;;;;;;2.80;1.90;;;;;34.10;96703.00;;;;8411466;28;21010;-63
2022/08/11 15:13:00;;;;;;;4.68;1.77;;;;;33.60;96710.00;;;;8406380;28;20702;-65
2022/08/11 15:17:08;;;;;;;1.92;1.83;;;;;33.20;96702.00;;;;8411070;28;20220;-65
2022/08/11 15:25:37;;;;;;;7.53;1.73;;;;;32.90;96701.00;;;;8411767;28;20665;-65
2022/08/11 15:38:35;;;;;;;2.80;1.70;;;;;32.20;96690.00;;;;8412413;28;20223;-66
2022/08/11 15:47:15;;;;;;;1.77;1.67;;;;;32.20;96690.00;;;;8417417;28;20250;-66
2022/08/11 15:51:27;;;;;;;4.43;2.10;;;;;32.60;96682.00;;;;8417101;28;20233;-66
2022/08/11 15:55:33;;;;;;;2.65;1.88;;;;;33.10;96689.00;;;;8413043;28;20329;-66
2022/08/11 16:04:12;;;;;;;6.32;2.28;;;;;32.30;96677.00;;;;8423191;28;20270;-66
2022/08/11 16:08:17;;;;;;;1.98;1.70;;;;;32.30;96681.00;;;;8435568;28;20222;-66
2022/08/11 16:12:39;;;;;;;3.38;1.88;;;;;32.30;96675.00;;;;8438919;28;20223;-66
2022/08/11 16:16:44;;;;;;;2.40;2.22;;;;;32.10;96671.00;;;;8444772;28;20234;-66
2022/08/11 16:20:51;;;;;;;2.13;2.03;;;;;31.80;96670.00;;;;8438000;28;20248;-65
2022/08/11 16:24:56;;;;;;;2.40;2.00;;;;;31.20;96671.00;;;;8444132;28;20217;-65
2022/08/11 16:29:21;;;;;;;7.68;2.38;;;;;31.00;96665.00;;;;8444887;28;20616;-66
2022/08/11 16:33:28;;;;;;;2.13;1.95;;;;;30.90;96667.00;;;;8450079;28;20226;-66
2022/08/11 16:46:59;;;;;;;3.83;2.42;;;;;31.00;96669.00;;;;8445024;27;20219;-66
2022/08/11 16:51:04;;;;;;;2.60;2.10;;;;;31.40;96665.00;;;;8444058;28;20321;-66
2022/08/11 16:55:09;;;;;;;3.95;2.03;;;;;31.90;96665.00;;;;8440551;27;20317;-66
2022/08/11 16:59:18;;;;;;;2.13;2.03;;;;;32.30;96665.00;;;;8438638;27;20225;-66
2022/08/11 17:16:44;;;;;;;6.25;2.10;;;;;32.20;96666.00;;;;8416213;28;20228;-66
2022/08/11 17:20:48;;;;;;;3.10;1.95;;;;;32.20;96667.00;;;;8418352;28;20233;-65
2022/08/11 17:24:55;;;;;;;3.53;2.28;;;;;32.20;96667.00;;;;8417572;28;20246;-66
2022/08/11 17:29:00;;;;;;;5.13;2.47;;;;;32.10;96666.00;;;;8417453;28;20230;-65
2022/08/11 17:37:25;;;;;;;4.93;1.90;;;;;31.70;96674.00;;;;8406247;28;20232;-68
2022/08/11 17:50:13;;;;;;;8.07;2.33;;;;;29.50;96670.00;;;;8421722;28;20226;-67
